Lauder Hill, Florida
Current Conditions -  °F | °C
As of 12:53 PM on Tuesday 21 Oct 2014 (Local Time) from KFXE Reporting Station
Light Rain Light Rain  
Wind Chill: 76°   Ceiling: 6000
Heat Index: 76°   Visibility: 3mi
Dew Point: 69°   Wind: 18mph
Humidity: 79%   Direction: 190°S
Pressure: 29.95"   Gusts: 28mph
Location:  26.2125°N, 80.2701°W
Report Text: KFXE 211653Z 19016G24KT 3SM -RA SCT024 BKN060 24/21 A2995 RMK AO2 RAB50 SLP144 P0003 T02440206
Loading
Personal Weather Stations






























Interactive Weather Map
Tropical Storm Tracking
New forecast layout! Learn more

10-Day Weather Forecast

Advertisements
Track Severe Weather on mobile